sensor_id;sensor_type;location;lat;lon;timestamp;pressure;altitude;pressure_sealevel;temperature;humidity
32067;BME280;18573;47.890;35.066;2023-07-24T00:01:09;100320.44;;;24.12;51.35
32067;BME280;18573;47.890;35.066;2023-07-24T00:03:38;100314.65;;;24.02;52.20
32067;BME280;18573;47.890;35.066;2023-07-24T00:06:07;100317.83;;;24.07;52.00
32067;BME280;18573;47.890;35.066;2023-07-24T00:08:37;100320.03;;;24.18;51.65
32067;BME280;18573;47.890;35.066;2023-07-24T00:11:08;100320.03;;;24.18;51.65
32067;BME280;18573;47.890;35.066;2023-07-24T00:13:37;100325.45;;;24.32;51.49
32067;BME280;18573;47.890;35.066;2023-07-24T00:16:08;100322.13;;;24.21;51.75
32067;BME280;18573;47.890;35.066;2023-07-24T00:18:37;100318.39;;;24.17;51.74
32067;BME280;18573;47.890;35.066;2023-07-24T00:21:06;100316.50;;;24.04;52.12
32067;BME280;18573;47.890;35.066;2023-07-24T00:23:36;100316.50;;;24.04;52.12
32067;BME280;18573;47.890;35.066;2023-07-24T00:26:05;100324.34;;;24.08;51.70
32067;BME280;18573;47.890;35.066;2023-07-24T00:28:35;100323.62;;;24.16;51.46
32067;BME280;18573;47.890;35.066;2023-07-24T00:31:05;100323.62;;;24.16;51.46
32067;BME280;18573;47.890;35.066;2023-07-24T00:33:34;100317.75;;;24.23;51.57
32067;BME280;18573;47.890;35.066;2023-07-24T00:36:04;100317.75;;;24.23;51.57
32067;BME280;18573;47.890;35.066;2023-07-24T00:38:33;100321.84;;;24.23;51.09
32067;BME280;18573;47.890;35.066;2023-07-24T00:41:03;100318.67;;;24.30;50.80
32067;BME280;18573;47.890;35.066;2023-07-24T00:43:32;100317.55;;;24.19;50.41
32067;BME280;18573;47.890;35.066;2023-07-24T00:46:02;100317.55;;;24.19;50.41
32067;BME280;18573;47.890;35.066;2023-07-24T00:48:32;100317.83;;;24.07;51.12
32067;BME280;18573;47.890;35.066;2023-07-24T00:51:02;100323.99;;;23.87;52.13
32067;BME280;18573;47.890;35.066;2023-07-24T00:53:31;100323.99;;;23.87;52.13
32067;BME280;18573;47.890;35.066;2023-07-24T00:56:01;100313.48;;;23.67;52.19
32067;BME280;18573;47.890;35.066;2023-07-24T00:58:31;100328.34;;;23.74;52.56
32067;BME280;18573;47.890;35.066;2023-07-24T01:01:00;100325.75;;;23.81;51.60
32067;BME280;18573;47.890;35.066;2023-07-24T01:03:34;100325.75;;;23.81;51.60
32067;BME280;18573;47.890;35.066;2023-07-24T01:06:05;100330.78;;;23.46;51.96
32067;BME280;18573;47.890;35.066;2023-07-24T01:08:35;100330.84;;;23.73;51.79
32067;BME280;18573;47.890;35.066;2023-07-24T01:11:18;100330.84;;;23.73;51.79
32067;BME280;18573;47.890;35.066;2023-07-24T01:13:47;100326.83;;;23.82;51.54
32067;BME280;18573;47.890;35.066;2023-07-24T01:16:18;100333.34;;;23.84;51.21
32067;BME280;18573;47.890;35.066;2023-07-24T01:18:48;100333.34;;;23.84;51.21
32067;BME280;18573;47.890;35.066;2023-07-24T01:21:20;100330.91;;;23.96;50.66
32067;BME280;18573;47.890;35.066;2023-07-24T01:24:14;100330.91;;;23.96;50.66
32067;BME280;18573;47.890;35.066;2023-07-24T01:26:38;100328.67;;;23.98;50.38
32067;BME280;18573;47.890;35.066;2023-07-24T01:29:07;100328.67;;;23.98;50.38
32067;BME280;18573;47.890;35.066;2023-07-24T01:31:36;100329.43;;;24.01;50.91
32067;BME280;18573;47.890;35.066;2023-07-24T01:34:05;100329.43;;;24.01;50.91
32067;BME280;18573;47.890;35.066;2023-07-24T01:36:35;100336.84;;;23.87;50.78
32067;BME280;18573;47.890;35.066;2023-07-24T01:39:04;100341.34;;;23.80;51.27
32067;BME280;18573;47.890;35.066;2023-07-24T01:41:33;100338.71;;;23.75;50.54
32067;BME280;18573;47.890;35.066;2023-07-24T01:44:02;100335.42;;;23.75;50.73
32067;BME280;18573;47.890;35.066;2023-07-24T01:46:32;100342.14;;;23.81;50.81
32067;BME280;18573;47.890;35.066;2023-07-24T01:49:01;100337.33;;;23.61;51.16
32067;BME280;18573;47.890;35.066;2023-07-24T01:51:31;100340.19;;;23.54;51.36
32067;BME280;18573;47.890;35.066;2023-07-24T01:54:00;100340.19;;;23.54;51.36
32067;BME280;18573;47.890;35.066;2023-07-24T01:56:29;100340.89;;;23.59;51.77
32067;BME280;18573;47.890;35.066;2023-07-24T01:58:59;100340.89;;;23.59;51.77
32067;BME280;18573;47.890;35.066;2023-07-24T02:01:28;100339.03;;;23.57;51.34
32067;BME280;18573;47.890;35.066;2023-07-24T02:03:59;100336.77;;;23.62;51.29
32067;BME280;18573;47.890;35.066;2023-07-24T02:06:28;100342.22;;;23.62;50.91
32067;BME280;18573;47.890;35.066;2023-07-24T02:08:58;100342.60;;;23.71;50.84
32067;BME280;18573;47.890;35.066;2023-07-24T02:11:27;100347.25;;;23.85;50.65
32067;BME280;18573;47.890;35.066;2023-07-24T02:13:57;100347.25;;;23.85;50.65
32067;BME280;18573;47.890;35.066;2023-07-24T02:16:27;100354.08;;;23.85;50.19
32067;BME280;18573;47.890;35.066;2023-07-24T02:18:57;100354.08;;;23.85;50.19
32067;BME280;18573;47.890;35.066;2023-07-24T02:21:26;100356.13;;;23.90;50.16
32067;BME280;18573;47.890;35.066;2023-07-24T02:23:55;100357.85;;;23.86;49.79
32067;BME280;18573;47.890;35.066;2023-07-24T02:26:24;100357.85;;;23.86;49.79
32067;BME280;18573;47.890;35.066;2023-07-24T02:28:53;100363.18;;;23.66;50.78
32067;BME280;18573;47.890;35.066;2023-07-24T02:31:23;100363.18;;;23.66;50.78
32067;BME280;18573;47.890;35.066;2023-07-24T02:33:52;100360.30;;;23.88;50.04
32067;BME280;18573;47.890;35.066;2023-07-24T02:36:22;100366.91;;;23.98;49.77
32067;BME280;18573;47.890;35.066;2023-07-24T02:38:51;100366.91;;;23.98;49.77
32067;BME280;18573;47.890;35.066;2023-07-24T02:41:20;100368.23;;;24.00;49.71
32067;BME280;18573;47.890;35.066;2023-07-24T02:46:28;100369.95;;;24.21;49.34
32067;BME280;18573;47.890;35.066;2023-07-24T02:48:59;100381.03;;;24.41;48.69
32067;BME280;18573;47.890;35.066;2023-07-24T02:51:28;100375.57;;;24.53;48.45
32067;BME280;18573;47.890;35.066;2023-07-24T02:53:57;100373.84;;;24.57;48.35
32067;BME280;18573;47.890;35.066;2023-07-24T02:56:27;100374.46;;;24.76;48.09
32067;BME280;18573;47.890;35.066;2023-07-24T02:58:56;100374.46;;;24.76;48.09
32067;BME280;18573;47.890;35.066;2023-07-24T03:01:25;100374.34;;;24.92;47.63
32067;BME280;18573;47.890;35.066;2023-07-24T03:03:54;100374.34;;;24.92;47.63
32067;BME280;18573;47.890;35.066;2023-07-24T03:06:23;100371.06;;;25.04;47.26
32067;BME280;18573;47.890;35.066;2023-07-24T03:08:53;100375.88;;;25.30;46.65
32067;BME280;18573;47.890;35.066;2023-07-24T03:11:22;100375.88;;;25.30;46.65
32067;BME280;18573;47.890;35.066;2023-07-24T03:13:51;100379.60;;;25.45;45.78
32067;BME280;18573;47.890;35.066;2023-07-24T03:16:20;100389.17;;;25.65;45.49
32067;BME280;18573;47.890;35.066;2023-07-24T03:18:51;100389.17;;;25.65;45.49
32067;BME280;18573;47.890;35.066;2023-07-24T03:21:21;100387.87;;;25.42;46.13
32067;BME280;18573;47.890;35.066;2023-07-24T03:23:50;100393.65;;;25.72;45.51
32067;BME280;18573;47.890;35.066;2023-07-24T03:26:19;100393.65;;;25.72;45.51
32067;BME280;18573;47.890;35.066;2023-07-24T03:28:48;100392.34;;;25.81;45.23
32067;BME280;18573;47.890;35.066;2023-07-24T03:31:17;100389.21;;;25.93;44.83
32067;BME280;18573;47.890;35.066;2023-07-24T03:33:47;100389.21;;;25.93;44.83
32067;BME280;18573;47.890;35.066;2023-07-24T03:36:16;100390.48;;;26.16;44.36
32067;BME280;18573;47.890;35.066;2023-07-24T03:38:45;100390.48;;;26.16;44.36
32067;BME280;18573;47.890;35.066;2023-07-24T03:41:14;100394.21;;;26.29;44.40
32067;BME280;18573;47.890;35.066;2023-07-24T03:43:45;100389.55;;;26.38;44.22
32067;BME280;18573;47.890;35.066;2023-07-24T03:46:14;100391.83;;;26.07;45.29
32067;BME280;18573;47.890;35.066;2023-07-24T03:48:43;100391.83;;;26.07;45.29
32067;BME280;18573;47.890;35.066;2023-07-24T03:51:12;100395.97;;;26.24;44.84
32067;BME280;18573;47.890;35.066;2023-07-24T03:53:41;100395.97;;;26.24;44.84
32067;BME280;18573;47.890;35.066;2023-07-24T03:56:11;100401.06;;;26.29;44.66
32067;BME280;18573;47.890;35.066;2023-07-24T03:58:40;100399.70;;;26.29;44.72
32067;BME280;18573;47.890;35.066;2023-07-24T04:01:09;100408.21;;;26.47;44.64
32067;BME280;18573;47.890;35.066;2023-07-24T04:03:39;100408.21;;;26.47;44.64
32067;BME280;18573;47.890;35.066;2023-07-24T04:06:08;100406.59;;;27.07;43.46
32067;BME280;18573;47.890;35.066;2023-07-24T04:08:37;100406.59;;;27.07;43.46
32067;BME280;18573;47.890;35.066;2023-07-24T04:11:06;100405.72;;;27.09;43.35
32067;BME280;18573;47.890;35.066;2023-07-24T04:13:36;100406.48;;;27.35;42.95
32067;BME280;18573;47.890;35.066;2023-07-24T04:16:05;100402.45;;;27.24;43.16
32067;BME280;18573;47.890;35.066;2023-07-24T04:18:34;100402.45;;;27.24;43.16
32067;BME280;18573;47.890;35.066;2023-07-24T04:21:04;100402.02;;;27.37;42.96
32067;BME280;18573;47.890;35.066;2023-07-24T04:23:33;100394.94;;;27.50;42.77
32067;BME280;18573;47.890;35.066;2023-07-24T04:26:03;100397.90;;;27.37;43.02
32067;BME280;18573;47.890;35.066;2023-07-24T04:28:32;100399.69;;;27.33;43.00
32067;BME280;18573;47.890;35.066;2023-07-24T04:31:01;100406.74;;;27.01;43.59
32067;BME280;18573;47.890;35.066;2023-07-24T04:33:31;100401.71;;;27.38;42.59
32067;BME280;18573;47.890;35.066;2023-07-24T04:36:00;100401.71;;;27.38;42.59
32067;BME280;18573;47.890;35.066;2023-07-24T04:38:29;100395.25;;;27.96;41.84
32067;BME280;18573;47.890;35.066;2023-07-24T04:41:02;100395.25;;;27.96;41.84
32067;BME280;18573;47.890;35.066;2023-07-24T04:43:32;100397.72;;;28.04;41.38
32067;BME280;18573;47.890;35.066;2023-07-24T04:46:01;100398.11;;;28.38;40.47
32067;BME280;18573;47.890;35.066;2023-07-24T04:48:30;100398.11;;;28.38;40.47
32067;BME280;18573;47.890;35.066;2023-07-24T04:51:00;100401.45;;;28.43;40.65
32067;BME280;18573;47.890;35.066;2023-07-24T04:53:29;100399.50;;;28.44;40.91
32067;BME280;18573;47.890;35.066;2023-07-24T04:55:58;100399.50;;;28.44;40.91
32067;BME280;18573;47.890;35.066;2023-07-24T04:58:27;100399.67;;;28.74;40.22
32067;BME280;18573;47.890;35.066;2023-07-24T05:00:56;100401.02;;;28.47;40.55
32067;BME280;18573;47.890;35.066;2023-07-24T05:03:25;100393.80;;;28.70;39.79
32067;BME280;18573;47.890;35.066;2023-07-24T05:05:55;100393.80;;;28.70;39.79
32067;BME280;18573;47.890;35.066;2023-07-24T05:08:24;100395.59;;;28.87;39.93
32067;BME280;18573;47.890;35.066;2023-07-24T05:10:57;100390.20;;;28.90;39.85
32067;BME280;18573;47.890;35.066;2023-07-24T05:13:27;100387.98;;;28.50;40.82
32067;BME280;18573;47.890;35.066;2023-07-24T05:15:57;100387.98;;;28.50;40.82
32067;BME280;18573;47.890;35.066;2023-07-24T05:18:26;100388.22;;;28.37;41.10
32067;BME280;18573;47.890;35.066;2023-07-24T05:20:56;100390.02;;;28.47;40.67
32067;BME280;18573;47.890;35.066;2023-07-24T05:23:25;100390.02;;;28.47;40.67
32067;BME280;18573;47.890;35.066;2023-07-24T05:26:02;100395.64;;;29.32;38.84
32067;BME280;18573;47.890;35.066;2023-07-24T05:28:32;100404.53;;;29.99;38.03
32067;BME280;18573;47.890;35.066;2023-07-24T05:31:04;100404.53;;;29.99;38.03
32067;BME280;18573;47.890;35.066;2023-07-24T05:33:35;100394.88;;;30.30;37.41
32067;BME280;18573;47.890;35.066;2023-07-24T05:36:05;100393.75;;;30.31;37.36
32067;BME280;18573;47.890;35.066;2023-07-24T05:38:34;100392.48;;;30.68;36.98
32067;BME280;18573;47.890;35.066;2023-07-24T05:41:04;100392.48;;;30.68;36.98
32067;BME280;18573;47.890;35.066;2023-07-24T05:43:33;100393.28;;;31.03;36.59
32067;BME280;18573;47.890;35.066;2023-07-24T05:46:02;100379.53;;;31.13;36.43
32067;BME280;18573;47.890;35.066;2023-07-24T05:48:31;100378.98;;;31.29;36.23
32067;BME280;18573;47.890;35.066;2023-07-24T05:51:01;100378.98;;;31.29;36.23
32067;BME280;18573;47.890;35.066;2023-07-24T05:53:30;100383.72;;;31.22;36.70
32067;BME280;18573;47.890;35.066;2023-07-24T05:56:01;100383.72;;;31.22;36.70
32067;BME280;18573;47.890;35.066;2023-07-24T05:58:31;100382.13;;;31.43;35.96
32067;BME280;18573;47.890;35.066;2023-07-24T06:01:01;100382.13;;;31.43;35.96
32067;BME280;18573;47.890;35.066;2023-07-24T06:03:30;100379.44;;;31.47;36.14
32067;BME280;18573;47.890;35.066;2023-07-24T06:05:59;100387.83;;;31.66;35.13
32067;BME280;18573;47.890;35.066;2023-07-24T06:08:29;100387.83;;;31.66;35.13
32067;BME280;18573;47.890;35.066;2023-07-24T06:11:00;100381.89;;;31.58;35.78
32067;BME280;18573;47.890;35.066;2023-07-24T06:13:29;100382.66;;;31.27;36.06
32067;BME280;18573;47.890;35.066;2023-07-24T06:15:58;100382.66;;;31.27;36.06
32067;BME280;18573;47.890;35.066;2023-07-24T06:18:27;100386.30;;;31.37;36.18
32067;BME280;18573;47.890;35.066;2023-07-24T06:20:57;100386.30;;;31.37;36.18
32067;BME280;18573;47.890;35.066;2023-07-24T06:23:27;100378.27;;;31.64;35.04
32067;BME280;18573;47.890;35.066;2023-07-24T06:25:57;100384.27;;;31.66;34.90
32067;BME280;18573;47.890;35.066;2023-07-24T06:28:27;100384.30;;;31.75;34.12
32067;BME280;18573;47.890;35.066;2023-07-24T06:30:57;100380.73;;;31.59;35.06
32067;BME280;18573;47.890;35.066;2023-07-24T06:33:27;100380.64;;;31.56;35.04
32067;BME280;18573;47.890;35.066;2023-07-24T06:35:57;100375.54;;;31.73;34.99
32067;BME280;18573;47.890;35.066;2023-07-24T06:38:26;100375.54;;;31.73;34.99
32067;BME280;18573;47.890;35.066;2023-07-24T06:40:58;100389.16;;;31.41;34.99
32067;BME280;18573;47.890;35.066;2023-07-24T06:43:27;100380.36;;;31.76;34.08
32067;BME280;18573;47.890;35.066;2023-07-24T06:45:56;100380.36;;;31.76;34.08
32067;BME280;18573;47.890;35.066;2023-07-24T06:48:25;100373.53;;;31.96;33.48
32067;BME280;18573;47.890;35.066;2023-07-24T06:50:54;100373.53;;;31.96;33.48
32067;BME280;18573;47.890;35.066;2023-07-24T06:53:23;100376.19;;;31.83;33.44
32067;BME280;18573;47.890;35.066;2023-07-24T06:55:53;100376.19;;;31.83;33.44
32067;BME280;18573;47.890;35.066;2023-07-24T06:58:23;100374.62;;;31.75;34.01
32067;BME280;18573;47.890;35.066;2023-07-24T07:00:52;100382.34;;;31.44;33.72
32067;BME280;18573;47.890;35.066;2023-07-24T07:03:21;100382.34;;;31.44;33.72
32067;BME280;18573;47.890;35.066;2023-07-24T07:05:51;100380.33;;;31.51;34.63
32067;BME280;18573;47.890;35.066;2023-07-24T07:08:20;100378.98;;;31.61;34.38
32067;BME280;18573;47.890;35.066;2023-07-24T07:10:58;100378.18;;;31.60;34.24
32067;BME280;18573;47.890;35.066;2023-07-24T07:13:24;100385.73;;;31.54;33.90
32067;BME280;18573;47.890;35.066;2023-07-24T07:15:54;100377.91;;;31.34;34.94
32067;BME280;18573;47.890;35.066;2023-07-24T07:18:23;100374.48;;;31.24;34.66
32067;BME280;18573;47.890;35.066;2023-07-24T07:20:53;100383.24;;;31.26;34.12
32067;BME280;18573;47.890;35.066;2023-07-24T07:23:22;100381.08;;;31.20;34.08
32067;BME280;18573;47.890;35.066;2023-07-24T07:25:52;100381.08;;;31.20;34.08
32067;BME280;18573;47.890;35.066;2023-07-24T07:28:21;100379.89;;;31.27;34.13
32067;BME280;18573;47.890;35.066;2023-07-24T07:30:51;100374.92;;;30.89;34.38
32067;BME280;18573;47.890;35.066;2023-07-24T07:33:23;100374.92;;;30.89;34.38
32067;BME280;18573;47.890;35.066;2023-07-24T07:35:52;100376.49;;;30.68;34.35
32067;BME280;18573;47.890;35.066;2023-07-24T07:38:24;100379.89;;;30.89;34.72
32067;BME280;18573;47.890;35.066;2023-07-24T07:40:53;100379.89;;;30.89;34.72
32067;BME280;18573;47.890;35.066;2023-07-24T07:43:23;100378.52;;;31.49;33.96
32067;BME280;18573;47.890;35.066;2023-07-24T07:45:53;100378.52;;;31.49;33.96
32067;BME280;18573;47.890;35.066;2023-07-24T07:48:23;100384.88;;;31.59;33.70
32067;BME280;18573;47.890;35.066;2023-07-24T07:50:53;100386.80;;;30.89;35.41
32067;BME280;18573;47.890;35.066;2023-07-24T07:53:23;100386.80;;;30.89;35.41
32067;BME280;18573;47.890;35.066;2023-07-24T07:56:01;100375.73;;;30.55;35.18
32067;BME280;18573;47.890;35.066;2023-07-24T07:58:27;100373.33;;;30.47;35.41
32067;BME280;18573;47.890;35.066;2023-07-24T08:00:56;100381.28;;;30.49;35.18
32067;BME280;18573;47.890;35.066;2023-07-24T08:03:26;100377.99;;;30.25;35.36
32067;BME280;18573;47.890;35.066;2023-07-24T08:05:59;100377.99;;;30.25;35.36
32067;BME280;18573;47.890;35.066;2023-07-24T08:08:28;100375.50;;;30.14;35.78
32067;BME280;18573;47.890;35.066;2023-07-24T08:11:03;100367.42;;;30.02;35.74
32067;BME280;18573;47.890;35.066;2023-07-24T08:13:29;100367.42;;;30.02;35.74
32067;BME280;18573;47.890;35.066;2023-07-24T08:15:59;100371.20;;;30.29;35.12
32067;BME280;18573;47.890;35.066;2023-07-24T08:18:30;100368.34;;;30.07;35.53
32067;BME280;18573;47.890;35.066;2023-07-24T08:20:59;100369.33;;;30.39;34.49
32067;BME280;18573;47.890;35.066;2023-07-24T08:23:30;100369.33;;;30.39;34.49
32067;BME280;18573;47.890;35.066;2023-07-24T08:26:01;100370.32;;;30.59;34.40
32067;BME280;18573;47.890;35.066;2023-07-24T08:28:30;100370.32;;;30.59;34.40
32067;BME280;18573;47.890;35.066;2023-07-24T08:31:00;100370.43;;;30.56;35.02
32067;BME280;18573;47.890;35.066;2023-07-24T08:33:31;100368.59;;;30.88;34.97
32067;BME280;18573;47.890;35.066;2023-07-24T08:36:02;100368.59;;;30.88;34.97
32067;BME280;18573;47.890;35.066;2023-07-24T08:38:31;100363.27;;;31.17;34.82
32067;BME280;18573;47.890;35.066;2023-07-24T08:41:08;100359.59;;;31.67;35.37
32067;BME280;18573;47.890;35.066;2023-07-24T08:43:39;100359.59;;;31.67;35.37
32067;BME280;18573;47.890;35.066;2023-07-24T08:46:09;100361.16;;;31.58;34.96
32067;BME280;18573;47.890;35.066;2023-07-24T08:48:40;100358.55;;;31.81;35.05
32067;BME280;18573;47.890;35.066;2023-07-24T08:51:12;100358.55;;;31.81;35.05
32067;BME280;18573;47.890;35.066;2023-07-24T08:53:43;100366.02;;;31.55;34.42
32067;BME280;18573;47.890;35.066;2023-07-24T08:56:13;100361.03;;;31.45;33.99
32067;BME280;18573;47.890;35.066;2023-07-24T08:58:42;100361.03;;;31.45;33.99
32067;BME280;18573;47.890;35.066;2023-07-24T09:01:11;100356.95;;;31.39;34.78
32067;BME280;18573;47.890;35.066;2023-07-24T09:03:41;100353.88;;;30.90;35.59
32067;BME280;18573;47.890;35.066;2023-07-24T09:06:11;100364.83;;;29.82;34.97
32067;BME280;18573;47.890;35.066;2023-07-24T09:08:41;100363.78;;;29.56;33.82
32067;BME280;18573;47.890;35.066;2023-07-24T09:11:13;100354.35;;;29.63;34.42
32067;BME280;18573;47.890;35.066;2023-07-24T09:13:43;100354.35;;;29.63;34.42
32067;BME280;18573;47.890;35.066;2023-07-24T09:16:26;100350.23;;;29.69;34.01
32067;BME280;18573;47.890;35.066;2023-07-24T09:18:56;100344.44;;;29.19;34.22
32067;BME280;18573;47.890;35.066;2023-07-24T09:21:31;100344.53;;;29.10;34.26
32067;BME280;18573;47.890;35.066;2023-07-24T09:24:13;100344.53;;;29.10;34.26
32067;BME280;18573;47.890;35.066;2023-07-24T09:26:52;100333.25;;;28.70;34.94
32067;BME280;18573;47.890;35.066;2023-07-24T09:29:30;100333.25;;;28.70;34.94
32067;BME280;18573;47.890;35.066;2023-07-24T09:31:54;100335.73;;;28.63;35.04
32067;BME280;18573;47.890;35.066;2023-07-24T09:34:25;100333.14;;;28.45;35.91
32067;BME280;18573;47.890;35.066;2023-07-24T09:36:54;100330.31;;;28.54;34.82
32067;BME280;18573;47.890;35.066;2023-07-24T09:39:28;100326.03;;;28.71;34.29
32067;BME280;18573;47.890;35.066;2023-07-24T09:42:04;100319.28;;;28.75;33.71
32067;BME280;18573;47.890;35.066;2023-07-24T09:44:33;100318.52;;;28.87;34.21
32067;BME280;18573;47.890;35.066;2023-07-24T09:47:03;100317.31;;;28.96;33.87
32067;BME280;18573;47.890;35.066;2023-07-24T09:49:34;100308.55;;;28.94;34.20
32067;BME280;18573;47.890;35.066;2023-07-24T09:52:06;100311.52;;;28.89;34.02
32067;BME280;18573;47.890;35.066;2023-07-24T09:54:38;100303.56;;;28.75;34.54
32067;BME280;18573;47.890;35.066;2023-07-24T09:57:09;100299.65;;;28.64;34.37
32067;BME280;18573;47.890;35.066;2023-07-24T09:59:42;100299.65;;;28.64;34.37
32067;BME280;18573;47.890;35.066;2023-07-24T10:02:12;100304.69;;;28.41;34.59
32067;BME280;18573;47.890;35.066;2023-07-24T10:04:42;100293.75;;;28.54;34.13
32067;BME280;18573;47.890;35.066;2023-07-24T10:07:14;100303.52;;;28.63;34.65
32067;BME280;18573;47.890;35.066;2023-07-24T10:09:44;100303.52;;;28.63;34.65
32067;BME280;18573;47.890;35.066;2023-07-24T10:12:13;100301.01;;;28.16;35.07
32067;BME280;18573;47.890;35.066;2023-07-24T10:14:45;100297.92;;;27.53;35.34
32067;BME280;18573;47.890;35.066;2023-07-24T10:17:20;100297.92;;;27.53;35.34
32067;BME280;18573;47.890;35.066;2023-07-24T10:19:47;100296.44;;;27.79;35.54
32067;BME280;18573;47.890;35.066;2023-07-24T10:22:20;100296.44;;;27.79;35.54
32067;BME280;18573;47.890;35.066;2023-07-24T10:24:51;100284.70;;;27.90;35.45
32067;BME280;18573;47.890;35.066;2023-07-24T10:27:24;100287.90;;;28.07;35.33
32067;BME280;18573;47.890;35.066;2023-07-24T10:30:04;100293.28;;;28.10;35.84
32067;BME280;18573;47.890;35.066;2023-07-24T10:32:47;100290.81;;;28.17;35.33
32067;BME280;18573;47.890;35.066;2023-07-24T10:35:19;100273.80;;;28.30;35.72
32067;BME280;18573;47.890;35.066;2023-07-24T10:37:59;100272.56;;;28.33;36.15
32067;BME280;18573;47.890;35.066;2023-07-24T10:40:28;100273.80;;;28.30;35.69
32067;BME280;18573;47.890;35.066;2023-07-24T10:43:00;100265.19;;;28.25;35.86
32067;BME280;18573;47.890;35.066;2023-07-24T10:45:40;100276.38;;;28.35;35.75
32067;BME280;18573;47.890;35.066;2023-07-24T10:48:10;100264.96;;;28.24;35.53
32067;BME280;18573;47.890;35.066;2023-07-24T10:50:42;100259.38;;;28.06;35.49
32067;BME280;18573;47.890;35.066;2023-07-24T10:53:18;100259.20;;;28.23;35.23
32067;BME280;18573;47.890;35.066;2023-07-24T10:55:46;100264.05;;;28.26;35.36
32067;BME280;18573;47.890;35.066;2023-07-24T10:58:20;100259.20;;;28.23;35.82
32067;BME280;18573;47.890;35.066;2023-07-24T11:00:52;100259.20;;;28.23;35.82
32067;BME280;18573;47.890;35.066;2023-07-24T11:03:21;100264.89;;;27.91;35.13
32067;BME280;18573;47.890;35.066;2023-07-24T11:05:51;100264.89;;;27.91;35.13
32067;BME280;18573;47.890;35.066;2023-07-24T11:08:21;100262.23;;;28.09;35.36
32067;BME280;18573;47.890;35.066;2023-07-24T11:10:52;100269.73;;;28.15;35.61
32067;BME280;18573;47.890;35.066;2023-07-24T11:13:26;100260.93;;;28.21;35.73
32067;BME280;18573;47.890;35.066;2023-07-24T11:15:56;100260.93;;;28.21;35.73
32067;BME280;18573;47.890;35.066;2023-07-24T11:18:25;100252.59;;;28.03;35.68
32067;BME280;18573;47.890;35.066;2023-07-24T11:20:58;100259.30;;;27.93;35.82
32067;BME280;18573;47.890;35.066;2023-07-24T11:23:28;100259.30;;;27.93;35.82
32067;BME280;18573;47.890;35.066;2023-07-24T11:26:00;100265.09;;;27.86;35.75
32067;BME280;18573;47.890;35.066;2023-07-24T11:28:38;100264.05;;;28.05;35.63
32067;BME280;18573;47.890;35.066;2023-07-24T11:31:03;100260.77;;;28.12;35.64
32067;BME280;18573;47.890;35.066;2023-07-24T11:33:34;100260.77;;;28.12;35.64
32067;BME280;18573;47.890;35.066;2023-07-24T11:36:03;100252.11;;;27.50;36.33
32067;BME280;18573;47.890;35.066;2023-07-24T11:38:33;100257.73;;;27.69;36.31
32067;BME280;18573;47.890;35.066;2023-07-24T11:41:05;100257.42;;;27.85;36.58
32067;BME280;18573;47.890;35.066;2023-07-24T11:43:35;100247.02;;;27.91;36.50
32067;BME280;18573;47.890;35.066;2023-07-24T11:46:04;100241.94;;;27.81;36.43
32067;BME280;18573;47.890;35.066;2023-07-24T11:48:40;100241.94;;;27.81;36.43
32067;BME280;18573;47.890;35.066;2023-07-24T11:51:06;100240.64;;;27.93;36.51
32067;BME280;18573;47.890;35.066;2023-07-24T11:53:35;100247.67;;;28.03;36.56
32067;BME280;18573;47.890;35.066;2023-07-24T11:56:12;100244.85;;;28.11;36.84
32067;BME280;18573;47.890;35.066;2023-07-24T11:58:37;100240.74;;;28.17;37.09
32067;BME280;18573;47.890;35.066;2023-07-24T12:01:06;100231.83;;;28.20;37.00
32067;BME280;18573;47.890;35.066;2023-07-24T12:03:36;100231.83;;;28.20;37.00
32067;BME280;18573;47.890;35.066;2023-07-24T12:06:05;100240.24;;;28.09;36.70
32067;BME280;18573;47.890;35.066;2023-07-24T12:08:36;100234.80;;;28.21;35.14
32067;BME280;18573;47.890;35.066;2023-07-24T12:11:16;100233.65;;;27.95;37.44
32067;BME280;18573;47.890;35.066;2023-07-24T12:13:46;100232.23;;;27.83;39.38
32067;BME280;18573;47.890;35.066;2023-07-24T12:16:17;100228.56;;;28.33;38.78
32067;BME280;18573;47.890;35.066;2023-07-24T12:18:47;100228.56;;;28.33;38.78
32067;BME280;18573;47.890;35.066;2023-07-24T12:21:16;100227.36;;;28.43;38.27
32067;BME280;18573;47.890;35.066;2023-07-24T12:23:45;100234.11;;;28.45;38.38
32067;BME280;18573;47.890;35.066;2023-07-24T12:26:14;100234.11;;;28.45;38.38
32067;BME280;18573;47.890;35.066;2023-07-24T12:28:44;100230.34;;;28.50;38.36
32067;BME280;18573;47.890;35.066;2023-07-24T12:31:13;100217.61;;;28.45;38.57
32067;BME280;18573;47.890;35.066;2023-07-24T12:33:42;100209.70;;;28.44;38.64
32067;BME280;18573;47.890;35.066;2023-07-24T12:36:11;100212.23;;;28.49;38.64
32067;BME280;18573;47.890;35.066;2023-07-24T12:38:40;100212.23;;;28.49;38.64
32067;BME280;18573;47.890;35.066;2023-07-24T12:41:10;100208.33;;;28.50;38.74
32067;BME280;18573;47.890;35.066;2023-07-24T12:43:39;100205.23;;;28.45;38.94
32067;BME280;18573;47.890;35.066;2023-07-24T12:46:10;100205.23;;;28.45;38.94
32067;BME280;18573;47.890;35.066;2023-07-24T12:48:40;100200.56;;;28.52;39.21
32067;BME280;18573;47.890;35.066;2023-07-24T12:51:09;100200.56;;;28.52;39.21
32067;BME280;18573;47.890;35.066;2023-07-24T12:53:39;100190.90;;;28.46;39.36
32067;BME280;18573;47.890;35.066;2023-07-24T12:56:10;100190.90;;;28.46;39.36
32067;BME280;18573;47.890;35.066;2023-07-24T12:58:40;100189.07;;;28.44;39.27